createdAt,value
2023-05-11T00:03:36.876Z,987
2023-05-11T00:14:15.156Z,986.9
2023-05-11T00:19:34.554Z,986.8
2023-05-11T00:30:13.228Z,986.9
2023-05-11T00:40:51.462Z,986.9
2023-05-11T00:46:20.094Z,986.9
2023-05-11T00:56:58.201Z,986.8
2023-05-11T01:02:08.673Z,986.9
2023-05-11T01:12:46.334Z,986.8
2023-05-11T01:28:43.466Z,986.8
2023-05-11T01:39:22.135Z,986.8
2023-05-11T01:44:41.090Z,986.8
2023-05-11T01:55:19.500Z,986.8
2023-05-11T02:00:38.869Z,986.8
2023-05-11T02:11:16.966Z,986.8
2023-05-11T02:21:56.156Z,986.7
2023-05-11T02:27:24.177Z,986.8
2023-05-11T02:38:01.342Z,986.7
2023-05-11T02:43:12.955Z,986.7
2023-05-11T02:53:51.420Z,986.7
2023-05-11T02:59:18.303Z,986.7
2023-05-11T03:04:29.213Z,986.6
2023-05-11T03:09:48.206Z,986.7
2023-05-11T03:20:26.114Z,986.6
2023-05-11T03:25:45.106Z,986.7
2023-05-11T03:36:23.168Z,986.6
2023-05-11T03:47:01.600Z,986.6
2023-05-11T03:52:21.208Z,986.6
2023-05-11T04:02:58.160Z,986.5
2023-05-11T04:08:17.736Z,986.5
2023-05-11T04:19:04.927Z,986.6
2023-05-11T04:34:53.502Z,986.5
2023-05-11T04:45:31.308Z,986.6
2023-05-11T04:50:50.777Z,986.6
2023-05-11T05:01:29.477Z,986.6
2023-05-11T05:17:27.691Z,986.7
2023-05-11T05:33:24.899Z,986.9
2023-05-11T05:44:04.841Z,986.9
2023-05-11T05:49:23.894Z,986.9
2023-05-11T06:00:02.005Z,986.9
2023-05-11T06:10:39.489Z,986.9
2023-05-11T06:21:18.350Z,987
2023-05-11T06:26:38.169Z,987
2023-05-11T06:37:16.965Z,987
2023-05-11T06:53:14.503Z,987.1
2023-05-11T07:03:54.802Z,987.1
2023-05-11T07:09:12.045Z,987.1
2023-05-11T07:19:50.962Z,987.2
2023-05-11T07:25:10.547Z,987.2
2023-05-11T07:30:30.269Z,987.3
2023-05-11T07:35:49.714Z,987.3
2023-05-11T07:46:27.190Z,987.3
2023-05-11T07:51:46.582Z,987.3
2023-05-11T08:02:24.859Z,987.2
2023-05-11T08:07:43.985Z,987.2
2023-05-11T08:18:22.466Z,987.3
2023-05-11T08:23:51.279Z,987.3
2023-05-11T08:29:00.448Z,987.3
2023-05-11T08:34:20.477Z,987.3
2023-05-11T08:44:58.475Z,987.3
2023-05-11T08:50:17.917Z,987.4
2023-05-11T09:00:57.185Z,987.3
2023-05-11T09:06:16.428Z,987.3
2023-05-11T09:16:55.062Z,987.3
2023-05-11T09:27:33.497Z,987.3
2023-05-11T09:32:52.561Z,987.3
2023-05-11T09:43:30.728Z,987.3
2023-05-11T09:59:28.853Z,987.3
2023-05-11T10:10:07.925Z,987.2
2023-05-11T10:15:26.813Z,987.2
2023-05-11T10:26:04.704Z,987.2
2023-05-11T10:31:24.182Z,987.1
2023-05-11T10:42:02.283Z,987.1
2023-05-11T10:52:41.156Z,987.1
2023-05-11T10:57:59.943Z,987
2023-05-11T11:08:39.171Z,987
2023-05-11T11:13:58.130Z,987
2023-05-11T11:19:16.942Z,986.9
2023-05-11T11:24:35.981Z,986.9
2023-05-11T11:30:04.248Z,986.9
2023-05-11T11:40:43.141Z,986.8
2023-05-11T11:51:12.331Z,986.8
2023-05-11T11:56:40.579Z,986.8
2023-05-11T12:07:10.147Z,986.8
2023-05-11T12:12:29.165Z,986.8
2023-05-11T12:23:07.960Z,986.8
2023-05-11T12:33:46.840Z,986.8
2023-05-11T12:39:05.576Z,986.8
2023-05-11T12:49:44.040Z,986.7
2023-05-11T13:00:22.707Z,986.7
2023-05-11T13:05:51.289Z,986.7
2023-05-11T13:11:01.953Z,986.7
2023-05-11T13:16:21.214Z,986.7
2023-05-11T13:27:00.429Z,986.7
2023-05-11T13:32:19.737Z,986.7
2023-05-11T13:42:58.027Z,986.6
2023-05-11T13:48:25.148Z,986.6
2023-05-11T13:58:55.861Z,986.5
2023-05-11T14:09:34.292Z,986.4
2023-05-11T14:14:53.929Z,986.4
2023-05-11T14:25:32.810Z,986.3
2023-05-11T14:30:51.952Z,986.3
2023-05-11T14:31:16.548Z,986.3
2023-05-11T14:41:55.295Z,986.2
2023-05-11T14:47:14.409Z,986.2
2023-05-11T14:57:52.756Z,986.1
2023-05-11T15:03:11.870Z,986.2
2023-05-11T15:08:31.077Z,986.1
2023-05-11T15:13:50.326Z,986.2
2023-05-11T15:24:30.254Z,986.2
2023-05-11T15:29:48.645Z,986.2
2023-05-11T15:40:26.947Z,986.2
2023-05-11T15:45:46.440Z,986.2
2023-05-11T15:56:24.253Z,986.2
2023-05-11T16:07:02.253Z,986.3
2023-05-11T16:12:21.574Z,986.2
2023-05-11T16:22:59.758Z,986.2
2023-05-11T16:28:18.870Z,986.2
2023-05-11T16:38:57.527Z,986.2
2023-05-11T16:49:35.862Z,986.2
2023-05-11T16:54:56.937Z,986.2
2023-05-11T17:05:33.654Z,986.2
2023-05-11T17:10:53.294Z,986.2
2023-05-11T17:21:31.562Z,986.1
2023-05-11T17:26:50.506Z,986.1
2023-05-11T17:32:09.651Z,986.2
2023-05-11T17:37:36.441Z,986.2
2023-05-11T17:48:07.175Z,986.3
2023-05-11T17:53:26.461Z,986.2
2023-05-11T18:04:05.192Z,986.3
2023-05-11T18:09:24.051Z,986.2
2023-05-11T18:14:43.478Z,986.3
2023-05-11T18:20:02.597Z,986.3
2023-05-11T18:30:41.774Z,986.4
2023-05-11T18:36:01.085Z,986.4
2023-05-11T18:46:40.368Z,986.4
2023-05-11T18:51:59.852Z,986.4
2023-05-11T19:02:37.513Z,986.5
2023-05-11T19:13:16.019Z,986.6
2023-05-11T19:18:35.424Z,986.6
2023-05-11T19:29:13.904Z,986.7
2023-05-11T19:34:33.342Z,986.7
2023-05-11T19:45:19.410Z,986.7
2023-05-11T19:50:30.192Z,986.7
2023-05-11T19:55:49.633Z,986.8
2023-05-11T20:06:28.425Z,986.8
2023-05-11T20:11:47.572Z,986.8
2023-05-11T20:22:25.908Z,986.8
2023-05-11T20:27:45.614Z,986.8
2023-05-11T20:38:24.639Z,986.8
2023-05-11T20:43:44.155Z,986.8
2023-05-11T20:49:03.768Z,986.8
2023-05-11T20:54:23.224Z,986.7
2023-05-11T21:05:02.747Z,986.7
2023-05-11T21:10:20.771Z,986.7
2023-05-11T21:21:11.044Z,986.7
2023-05-11T21:26:21.999Z,986.7
2023-05-11T21:31:38.121Z,986.7
2023-05-11T21:37:02.761Z,986.8
2023-05-11T21:47:36.064Z,986.8
2023-05-11T21:52:55.035Z,986.8
2023-05-11T22:03:33.826Z,986.9
2023-05-11T22:08:53.347Z,986.9
2023-05-11T22:19:31.798Z,986.9
2023-05-11T22:30:09.906Z,986.8
2023-05-11T22:35:29.454Z,986.8
2023-05-11T22:46:07.883Z,986.9
2023-05-11T22:51:26.969Z,986.9
2023-05-11T23:02:05.315Z,986.9
2023-05-11T23:12:43.774Z,986.9
2023-05-11T23:18:02.796Z,986.9
2023-05-11T23:28:40.673Z,986.9
2023-05-11T23:33:59.780Z,986.9
2023-05-11T23:44:37.781Z,986.8
